Time;durP1;ratioP1;P1;durP2;ratioP2;P2;SDS_P1;SDS_P2;PMS_P1;PMS_P2;Temp;Humidity;BMP_temperature;BMP_pressure;BME280_temperature;BME280_humidity;BME280_pressure;Samples;Min_cycle;Max_cycle;Signal;HPM_P1;HPM_P2
2023/04/26 00:02:04;;;;;;;;;39.75;36.25;;;;;12.14;82.80;101414.94;5061409;28;47204;-76
2023/04/26 00:04:29;;;;;;;;;41.25;36.00;;;;;12.13;83.22;101419.44;5062708;28;45342;-76
2023/04/26 00:06:55;;;;;;;;;42.75;35.00;;;;;12.00;83.79;101403.91;5061207;28;45415;-76
2023/04/26 00:09:20;;;;;;;;;38.50;34.25;;;;;11.98;84.05;101401.41;5062605;28;45323;-76
2023/04/26 00:11:46;;;;;;;;;41.75;36.50;;;;;11.97;84.04;101414.91;5062477;28;45507;-76
2023/04/26 00:14:11;;;;;;;;;37.75;35.50;;;;;11.93;83.70;101402.91;5060681;28;57659;-76
2023/04/26 00:16:37;;;;;;;;;41.50;37.50;;;;;11.97;84.03;101415.75;5061349;28;45812;-76
2023/04/26 00:19:03;;;;;;;;;41.25;37.00;;;;;11.92;84.17;101409.25;5062639;28;45263;-76
2023/04/26 00:21:28;;;;;;;;;36.50;33.25;;;;;11.94;84.30;101418.75;5062301;28;45303;-76
2023/04/26 00:23:54;;;;;;;;;33.75;31.75;;;;;11.93;84.19;101410.91;5060808;28;48411;-76
2023/04/26 00:26:20;;;;;;;;;34.50;31.75;;;;;11.96;84.16;101414.09;5060841;28;49851;-76
2023/04/26 00:28:45;;;;;;;;;34.25;32.75;;;;;11.96;84.39;101423.91;5066533;28;45258;-76
2023/04/26 00:31:14;;;;;;;;;42.75;36.00;;;;;11.90;84.68;101416.56;5082251;27;45263;-76
2023/04/26 00:33:40;;;;;;;;;40.50;34.75;;;;;11.86;84.75;101405.44;5082650;27;45381;-76
2023/04/26 00:36:05;;;;;;;;;35.25;33.50;;;;;11.89;83.95;101413.09;5080839;28;45462;-76
2023/04/26 00:38:31;;;;;;;;;32.50;31.00;;;;;11.85;84.20;101420.56;5082277;28;45403;-76
2023/04/26 00:40:56;;;;;;;;;31.25;30.00;;;;;11.79;83.92;101409.75;5081108;28;47097;-76
2023/04/26 00:43:22;;;;;;;;;28.00;27.75;;;;;11.74;83.92;101408.41;5080838;28;53577;-75
2023/04/26 00:45:47;;;;;;;;;36.50;32.75;;;;;11.76;84.17;101394.13;5082363;27;45344;-76
2023/04/26 00:48:14;;;;;;;;;31.50;29.75;;;;;11.77;84.54;101395.78;5082384;27;45264;-76
2023/04/26 00:50:40;;;;;;;;;33.25;29.75;;;;;11.70;84.66;101392.94;5082271;27;45531;-76
2023/04/26 00:53:07;;;;;;;;;27.67;26.33;;;;;11.64;85.24;101377.63;5081992;27;45341;-76
2023/04/26 00:55:33;;;;;;;;;35.50;31.75;;;;;11.59;85.27;101384.25;5082149;27;45299;-76
2023/04/26 00:57:58;;;;;;;;;30.00;30.00;;;;;11.62;85.48;101388.44;5080928;28;45360;-76
2023/04/26 01:00:24;;;;;;;;;35.50;33.25;;;;;11.65;86.04;101388.13;5082095;27;45269;-76
2023/04/26 01:02:50;;;;;;;;;28.75;27.25;;;;;11.60;85.65;101380.63;5082040;27;45854;-76
2023/04/26 01:05:16;;;;;;;;;29.00;29.00;;;;;11.60;86.03;101377.13;5082000;27;45256;-76
2023/04/26 01:07:42;;;;;;;;;31.25;29.50;;;;;11.56;86.29;101368.66;5082065;27;45316;-76
2023/04/26 01:10:08;;;;;;;;;34.50;32.00;;;;;11.60;86.28;101369.97;5081319;27;45274;-76
2023/04/26 01:12:34;;;;;;;;;41.25;34.00;;;;;11.55;86.29;101360.84;5081920;27;45597;-76
2023/04/26 01:15:00;;;;;;;;;30.00;29.50;;;;;11.67;86.47;101371.97;5081767;27;45309;-76
2023/04/26 01:17:25;;;;;;;;;27.25;26.25;;;;;11.65;86.74;101358.00;5082047;28;45345;-76
2023/04/26 01:19:51;;;;;;;;;35.25;27.75;;;;;11.62;87.05;101370.63;5081847;27;45229;-76
2023/04/26 01:22:17;;;;;;;;;32.25;29.25;;;;;11.65;86.87;101372.16;5080385;28;47286;-76
2023/04/26 01:24:45;;;;;;;;;36.00;33.50;;;;;11.67;87.12;101370.13;5081672;27;45280;-76
2023/04/26 01:27:10;;;;;;;;;35.50;33.00;;;;;11.60;87.09;101350.50;5081784;27;45412;-76
2023/04/26 01:29:35;;;;;;;;;31.50;29.25;;;;;11.60;86.88;101361.16;5070251;27;45339;-76
2023/04/26 01:32:01;;;;;;;;;36.50;34.00;;;;;11.61;87.08;101358.31;5059695;28;47249;-75
2023/04/26 01:34:26;;;;;;;;;30.00;28.50;;;;;11.62;86.92;101352.00;5061333;28;45399;-76
2023/04/26 01:36:51;;;;;;;;;33.00;30.25;;;;;11.55;87.29;101343.00;5061057;28;45319;-76
2023/04/26 01:39:17;;;;;;;;;27.50;26.75;;;;;11.56;87.43;101330.53;5061014;28;45455;-76
2023/04/26 01:41:42;;;;;;;;;32.25;29.25;;;;;11.57;87.67;101330.38;5061021;28;45952;-76
2023/04/26 01:44:08;;;;;;;;;28.75;27.25;;;;;11.56;88.02;101325.22;5061208;28;45310;-76
2023/04/26 01:46:33;;;;;;;;;29.00;26.75;;;;;11.58;88.23;101328.53;5061265;28;45438;-76
2023/04/26 01:48:58;;;;;;;;;27.50;26.00;;;;;11.56;87.45;101323.41;5061119;28;45313;-76
2023/04/26 01:51:24;;;;;;;;;30.25;28.75;;;;;11.60;87.97;101334.53;5060655;28;51652;-76
2023/04/26 01:53:49;;;;;;;;;27.00;25.25;;;;;11.53;87.84;101326.38;5060907;28;45337;-76
2023/04/26 01:56:15;;;;;;;;;25.50;24.50;;;;;11.57;87.91;101333.03;5061155;28;45288;-76
2023/04/26 01:58:40;;;;;;;;;24.75;24.00;;;;;11.62;87.77;101345.84;5059416;28;45993;-76
2023/04/26 02:01:07;;;;;;;;;25.50;22.75;;;;;11.61;87.54;101344.16;5060891;28;45243;-76
2023/04/26 02:03:33;;;;;;;;;27.00;23.50;;;;;11.60;87.35;101335.38;5060908;28;45346;-75
2023/04/26 02:05:58;;;;;;;;;28.25;26.75;;;;;11.60;87.19;101334.53;5060726;28;45281;-76
2023/04/26 02:08:23;;;;;;;;;28.50;28.00;;;;;11.62;87.26;101343.19;5060472;28;46812;-76
2023/04/26 02:10:49;;;;;;;;;27.50;26.25;;;;;11.61;86.85;101338.84;5059236;28;48234;-76
2023/04/26 02:13:14;;;;;;;;;33.75;27.00;;;;;11.57;87.11;101327.72;5060832;28;45452;-76
2023/04/26 02:15:40;;;;;;;;;32.50;26.25;;;;;11.55;87.73;101340.34;5060566;28;46439;-76
2023/04/26 02:18:06;;;;;;;;;31.00;28.50;;;;;11.52;87.32;101324.69;5060575;28;45323;-76
2023/04/26 02:20:31;;;;;;;;;27.00;25.25;;;;;11.47;86.77;101319.06;5059352;28;46471;-76
2023/04/26 02:22:57;;;;;;;;;29.00;26.25;;;;;11.47;87.15;101330.53;5060290;28;45256;-76
2023/04/26 02:25:23;;;;;;;;;27.50;22.25;;;;;11.48;87.09;101329.53;5060530;28;45455;-76
2023/04/26 02:27:49;;;;;;;;;25.75;25.50;;;;;11.41;86.93;101322.38;5060175;28;45287;-76
2023/04/26 02:30:14;;;;;;;;;30.00;28.00;;;;;11.47;87.18;101327.84;5076418;28;45365;-75
2023/04/26 02:32:40;;;;;;;;;31.50;27.00;;;;;11.46;86.93;101323.53;5080358;28;49606;-75
2023/04/26 02:35:05;;;;;;;;;27.75;26.00;;;;;11.47;87.41;101335.03;5079444;28;45244;-76
2023/04/26 02:37:31;;;;;;;;;34.50;28.25;;;;;11.44;87.62;101328.19;5080333;27;45364;-75
2023/04/26 02:39:57;;;;;;;;;29.25;27.25;;;;;11.41;87.79;101325.88;5080234;27;46080;-76
2023/04/26 02:42:22;;;;;;;;;31.75;25.75;;;;;11.47;87.94;101319.88;5080567;27;45353;-76
2023/04/26 02:44:47;;;;;;;;;26.75;25.50;;;;;11.48;88.26;101318.91;5113577;27;45363;-75
2023/04/26 02:47:13;;;;;;;;;29.00;26.50;;;;;11.52;87.91;101329.22;5078905;28;47507;-75
2023/04/26 02:49:38;;;;;;;;;27.75;25.25;;;;;11.49;87.88;101325.88;5080472;27;45413;-75
2023/04/26 02:52:03;;;;;;;;;26.75;24.75;;;;;11.50;88.36;101329.38;5079859;28;50190;-76
2023/04/26 02:54:29;;;;;;;;;24.50;21.25;;;;;11.48;88.62;101323.38;5080229;27;45271;-76
2023/04/26 02:56:55;;;;;;;;;27.00;22.50;;;;;11.51;88.08;101327.53;5080334;27;45396;-76
2023/04/26 02:59:20;;;;;;;;;24.00;24.00;;;;;11.60;87.92;101334.53;5080281;27;46069;-76
2023/04/26 03:01:45;;;;;;;;;26.25;23.00;;;;;11.59;87.76;101325.69;5080466;27;45311;-76
2023/04/26 03:04:11;;;;;;;;;22.50;21.75;;;;;11.53;87.95;101309.56;5080355;27;45419;-76
2023/04/26 03:06:36;;;;;;;;;27.75;25.25;;;;;11.59;88.31;101317.72;5079990;27;45346;-76
2023/04/26 03:09:02;;;;;;;;;18.00;14.75;;;;;11.52;88.39;101302.59;5080016;27;45881;-75
2023/04/26 03:11:27;;;;;;;;;19.75;19.75;;;;;11.48;88.15;101294.09;5078861;28;45249;-76
2023/04/26 03:13:53;;;;;;;;;20.33;19.67;;;;;11.56;88.12;101306.56;5078367;28;54191;-76
2023/04/26 03:16:20;;;;;;;;;23.33;21.67;;;;;11.53;88.35;101313.06;5079977;27;45236;-76
2023/04/26 03:18:45;;;;;;;;;20.75;18.75;;;;;11.57;87.67;101326.88;5078610;28;47118;-76
2023/04/26 03:21:11;;;;;;;;;21.33;18.67;;;;;11.55;87.94;101313.72;5079855;27;45317;-76
2023/04/26 03:23:36;;;;;;;;;22.00;21.75;;;;;11.57;87.73;101313.56;5079928;27;45169;-75
2023/04/26 03:26:02;;;;;;;;;20.75;17.75;;;;;11.58;87.21;101313.38;5079838;27;45444;-75
2023/04/26 03:28:27;;;;;;;;;20.25;19.75;;;;;11.58;87.16;101312.56;5078274;27;46138;-76
2023/04/26 03:30:53;;;;;;;;;19.50;19.50;;;;;11.61;86.84;101323.72;5059366;28;45440;-75
2023/04/26 03:33:18;;;;;;;;;22.25;19.75;;;;;11.58;87.00;101317.88;5059155;28;49858;-75
2023/04/26 03:35:43;;;;;;;;;22.75;21.75;;;;;11.51;86.78;101317.72;5059099;28;46472;-75
2023/04/26 03:38:09;;;;;;;;;20.75;20.00;;;;;11.53;86.90;101309.56;5059254;28;45315;-76
2023/04/26 03:40:34;;;;;;;;;24.50;22.50;;;;;11.44;87.03;101301.56;5058072;28;45252;-76
2023/04/26 03:43:00;;;;;;;;;21.75;20.75;;;;;11.45;87.07;101299.75;5059814;28;45349;-76
2023/04/26 03:45:25;;;;;;;;;18.50;17.00;;;;;11.50;87.67;101318.72;5059297;28;45362;-76
2023/04/26 03:47:51;;;;;;;;;22.25;21.25;;;;;11.43;87.22;101293.78;5057714;28;48445;-76
2023/04/26 03:50:17;;;;;;;;;20.00;18.50;;;;;11.42;87.34;101292.09;5059192;28;45268;-76
2023/04/26 03:52:43;;;;;;;;;20.33;18.33;;;;;11.43;86.84;101297.25;5059286;28;45383;-75
2023/04/26 03:55:10;;;;;;;;;20.00;20.00;;;;;11.49;86.97;101301.91;5059195;28;45318;-76
2023/04/26 03:57:35;;;;;;;;;23.50;18.75;;;;;11.50;87.44;101297.44;5059243;28;45404;-76
2023/04/26 04:00:01;;;;;;;;;20.33;19.67;;;;;11.52;87.15;101303.41;5057558;28;48716;-76
2023/04/26 04:02:26;;;;;;;;;19.25;18.00;;;;;11.56;86.95;101307.41;5059116;28;45262;-75
2023/04/26 04:04:51;;;;;;;;;26.00;23.75;;;;;11.57;87.52;101309.06;5058258;28;55334;-76
2023/04/26 04:07:17;;;;;;;;;19.00;19.00;;;;;11.52;87.64;101298.09;5058400;28;48025;-76
2023/04/26 04:09:43;;;;;;;;;21.00;20.50;;;;;11.57;87.39;101309.06;5058951;28;45293;-76
2023/04/26 04:12:08;;;;;;;;;17.67;16.00;;;;;11.61;87.92;101309.56;5058991;28;45214;-76
2023/04/26 04:14:33;;;;;;;;;20.00;19.00;;;;;11.57;87.87;101306.41;5058922;28;45844;-76
2023/04/26 04:16:58;;;;;;;;;23.25;20.00;;;;;11.56;87.51;101307.41;5058946;28;45213;-76
2023/04/26 04:19:24;;;;;;;;;19.67;17.33;;;;;11.56;88.31;101303.91;5058558;28;57254;-76
2023/04/26 04:21:49;;;;;;;;;21.00;21.00;;;;;11.58;88.14;101301.91;5058577;28;51799;-76
2023/04/26 04:24:16;;;;;;;;;21.00;18.75;;;;;11.66;88.13;101315.22;5057189;28;47387;-76
2023/04/26 04:26:41;;;;;;;;;21.67;18.67;;;;;11.69;88.08;101320.22;5057581;28;47462;-76
2023/04/26 04:29:10;;;;;;;;;19.75;19.00;;;;;11.62;88.25;101306.72;5065685;28;45309;-76
2023/04/26 04:31:35;;;;;;;;;19.25;19.25;;;;;11.74;88.16;101322.38;5077985;28;45306;-76
2023/04/26 04:34:01;;;;;;;;;20.67;19.33;;;;;11.79;88.47;101320.03;5079043;27;45336;-76
2023/04/26 04:36:26;;;;;;;;;18.33;17.67;;;;;11.80;88.02;101315.56;5078748;27;45254;-76
2023/04/26 04:38:52;;;;;;;;;21.33;18.33;;;;;11.80;87.48;101312.88;5078562;28;48978;-75
2023/04/26 04:41:19;;;;;;;;;20.33;18.67;;;;;11.82;87.24;101313.56;5078942;27;45227;-75
2023/04/26 04:43:44;;;;;;;;;21.00;20.50;;;;;11.83;87.91;101312.56;5078689;28;46242;-76
2023/04/26 04:46:09;;;;;;;;;20.67;19.33;;;;;11.81;87.73;101312.72;5082858;27;46139;-77
2023/04/26 04:48:37;;;;;;;;;18.33;18.33;;;;;11.85;87.52;101315.84;5082975;28;45340;-77
2023/04/26 04:51:02;;;;;;;;;23.00;22.00;;;;;11.90;87.78;101315.34;5082968;27;45392;-77
2023/04/26 04:53:28;;;;;;;;;20.25;19.00;;;;;11.86;87.88;101297.03;5081468;28;45911;-77
2023/04/26 04:55:53;;;;;;;;;19.00;18.00;;;;;11.87;88.10;101290.75;5082900;27;45350;-77
2023/04/26 04:58:18;;;;;;;;;18.67;18.00;;;;;11.97;87.73;101309.19;5082677;27;45303;-77
2023/04/26 05:00:45;;;;;;;;;22.00;19.00;;;;;11.91;87.70;101299.22;5082583;27;45280;-77
2023/04/26 05:03:13;;;;;;;;;19.00;19.00;;;;;12.04;87.79;101312.03;5077672;27;45410;-77
2023/04/26 05:05:38;;;;;;;;;19.67;18.33;;;;;12.09;86.95;101324.88;5061747;28;46481;-77
2023/04/26 05:08:06;;;;;;;;;21.33;19.33;;;;;12.05;86.83;101310.16;5061475;28;45425;-77
2023/04/26 05:10:31;;;;;;;;;27.67;24.67;;;;;12.05;86.34;101308.34;5061561;28;45373;-77
2023/04/26 05:12:57;;;;;;;;;22.00;20.33;;;;;12.10;86.07;101316.66;5060984;28;45469;-77
2023/04/26 05:15:22;;;;;;;;;24.33;20.00;;;;;12.03;85.94;101302.34;5060288;28;56241;-77
2023/04/26 05:17:48;;;;;;;;;19.00;18.33;;;;;12.12;86.03;101311.19;5061040;28;45310;-77
2023/04/26 05:20:13;;;;;;;;;20.00;19.67;;;;;12.13;86.05;101326.19;5060722;28;45280;-77
2023/04/26 05:22:39;;;;;;;;;20.67;19.00;;;;;12.18;85.79;101323.81;5062569;28;45514;-77
2023/04/26 05:25:05;;;;;;;;;19.33;18.00;;;;;12.12;85.39;101305.84;5062657;28;45352;-77
2023/04/26 05:27:30;;;;;;;;;22.00;21.00;;;;;12.20;86.00;101310.31;5061712;28;45275;-77
2023/04/26 05:29:55;;;;;;;;;21.50;21.50;;;;;12.24;86.28;101319.63;5076712;28;45431;-77
2023/04/26 05:32:21;;;;;;;;;19.33;19.00;;;;;12.18;85.75;101299.84;5081390;28;47222;-77
2023/04/26 05:34:46;;;;;;;;;26.00;25.33;;;;;12.30;85.36;101302.16;5082414;28;57210;-77
2023/04/26 05:37:11;;;;;;;;;20.00;20.00;;;;;12.32;85.45;101313.47;5082438;27;45324;-77
2023/04/26 05:39:37;;;;;;;;;19.67;18.33;;;;;12.31;85.85;101303.81;5081563;27;48713;-77
2023/04/26 05:42:02;;;;;;;;;21.00;18.67;;;;;12.42;85.29;101308.75;5082418;27;53729;-77
2023/04/26 05:44:28;;;;;;;;;21.25;21.25;;;;;12.47;85.54;101316.25;5080881;28;47289;-77
2023/04/26 05:46:53;;;;;;;;;27.67;24.67;;;;;12.53;85.57;101323.56;5081844;27;45185;-77
2023/04/26 05:49:19;;;;;;;;;28.25;25.25;;;;;12.57;84.84;101321.38;5081796;27;50381;-77
2023/04/26 05:51:44;;;;;;;;;30.00;27.67;;;;;12.59;83.96;101309.53;5080338;28;46039;-77
2023/04/26 05:54:10;;;;;;;;;51.50;39.50;;;;;12.54;83.28;101316.38;5081484;27;45519;-77
2023/04/26 05:56:35;;;;;;;;;83.25;68.25;;;;;12.57;85.14;101313.38;5080446;28;45362;-77
2023/04/26 05:59:00;;;;;;;;;63.75;50.00;;;;;12.63;85.21;101315.31;5080896;28;45362;-77
2023/04/26 06:01:26;;;;;;;;;29.67;28.00;;;;;12.72;85.29;101329.47;5081429;28;46183;-77
2023/04/26 06:03:51;;;;;;;;;24.00;22.33;;;;;12.75;84.56;101319.28;5082752;27;45910;-77
2023/04/26 06:06:18;;;;;;;;;17.67;17.67;;;;;12.73;84.54;101321.31;5081941;28;51503;-77
2023/04/26 06:08:44;;;;;;;;;25.67;22.00;;;;;12.75;84.60;101318.44;5081830;28;45299;-77
2023/04/26 06:11:09;;;;;;;;;23.00;19.33;;;;;12.88;84.65;101328.56;5081826;27;45559;-77
2023/04/26 06:13:35;;;;;;;;;17.33;16.00;;;;;12.94;84.83;101330.53;5080401;28;51229;-76
2023/04/26 06:16:00;;;;;;;;;22.00;16.67;;;;;12.98;84.31;101336.34;5081521;28;54093;-77
2023/04/26 06:18:25;;;;;;;;;25.33;21.33;;;;;12.99;84.36;101333.50;5080249;28;45529;-77
2023/04/26 06:20:51;;;;;;;;;24.00;20.33;;;;;13.06;84.31;101328.28;5081679;27;53720;-77
2023/04/26 06:23:16;;;;;;;;;22.67;21.67;;;;;13.19;84.14;101330.38;5081811;27;45277;-77
2023/04/26 06:25:44;;;;;;;;;26.00;21.33;;;;;13.30;84.27;101333.63;5081824;27;45256;-77
2023/04/26 06:28:10;;;;;;;;;19.00;16.33;;;;;13.35;83.45;101339.28;5081673;27;45219;-77
2023/04/26 06:30:36;;;;;;;;;22.00;21.33;;;;;13.39;83.03;101335.25;5061737;27;45481;-77
2023/04/26 06:33:01;;;;;;;;;21.67;19.67;;;;;13.44;83.39;101329.38;5060863;28;45444;-77
2023/04/26 06:35:26;;;;;;;;;23.33;22.67;;;;;13.45;83.57;101323.84;5061096;28;45224;-77
2023/04/26 06:37:52;;;;;;;;;21.67;20.67;;;;;13.55;84.07;101326.28;5061061;28;45635;-77
2023/04/26 06:40:17;;;;;;;;;25.00;22.00;;;;;13.53;82.78;101319.47;5059456;28;45919;-77
2023/04/26 06:42:42;;;;;;;;;30.67;28.00;;;;;13.65;82.87;101327.91;5060773;28;45310;-77
2023/04/26 06:45:08;;;;;;;;;38.67;30.67;;;;;13.67;83.00;101316.00;5060582;28;49924;-77
2023/04/26 06:47:34;;;;;;;;;30.00;26.67;;;;;13.73;82.85;101309.94;5060830;28;45243;-77
2023/04/26 06:49:59;;;;;;;;;19.33;19.33;;;;;13.85;82.07;101321.03;5061191;28;45468;-77
2023/04/26 06:52:25;;;;;;;;;22.00;19.67;;;;;13.97;82.74;101323.25;5061050;28;45309;-77
2023/04/26 06:54:50;;;;;;;;;22.67;21.67;;;;;13.99;82.30;101316.72;5060890;28;45371;-77
2023/04/26 06:57:15;;;;;;;;;23.33;21.33;;;;;14.06;81.85;101322.16;5061132;28;45359;-77
2023/04/26 06:59:41;;;;;;;;;25.00;22.00;;;;;14.18;81.98;101324.34;5060608;28;45323;-77
2023/04/26 07:02:06;;;;;;;;;25.33;23.33;;;;;14.20;81.69;101317.84;5058965;28;54560;-77
2023/04/26 07:04:31;;;;;;;;;25.67;24.67;;;;;14.30;82.04;101316.72;5059412;28;45185;-77
2023/04/26 07:06:57;;;;;;;;;26.00;23.67;;;;;14.46;81.26;101335.22;5058227;28;47644;-77
2023/04/26 07:09:22;;;;;;;;;25.33;23.33;;;;;14.49;81.04;101326.03;5060326;28;45362;-77
2023/04/26 07:11:47;;;;;;;;;49.75;39.00;;;;;14.61;81.23;101334.41;5058843;28;47101;-77
2023/04/26 07:14:13;;;;;;;;;41.67;32.00;;;;;14.61;80.56;101329.06;5060206;28;45229;-77
2023/04/26 07:16:38;;;;;;;;;41.67;31.67;;;;;14.66;80.72;101331.97;5060525;28;45462;-77
2023/04/26 07:19:05;;;;;;;;;52.50;40.75;;;;;14.77;80.41;101334.19;5059715;28;56138;-76
2023/04/26 07:21:30;;;;;;;;;74.50;58.75;;;;;14.77;79.28;101336.03;5058554;28;47357;-77
2023/04/26 07:23:56;;;;;;;;;50.25;39.50;;;;;14.90;79.64;101346.09;5058372;28;45276;-77
2023/04/26 07:26:22;;;;;;;;;66.50;51.50;;;;;14.98;79.18;101347.81;5059928;28;45324;-77
2023/04/26 07:28:47;;;;;;;;;29.67;26.67;;;;;15.06;79.36;101349.56;5063206;28;46109;-77
2023/04/26 07:31:13;;;;;;;;;35.00;31.00;;;;;15.06;78.64;101341.53;5078886;28;47245;-77
2023/04/26 07:33:38;;;;;;;;;34.33;31.00;;;;;15.18;78.18;101348.06;5080535;27;45300;-77
2023/04/26 07:36:04;;;;;;;;;34.67;31.67;;;;;15.27;78.64;101344.22;5080471;27;45499;-77
2023/04/26 07:38:29;;;;;;;;;28.00;25.33;;;;;15.39;78.43;101341.84;5079995;27;45491;-77
2023/04/26 07:40:55;;;;;;;;;26.00;23.33;;;;;15.49;78.21;101335.34;5080400;27;45373;-77
2023/04/26 07:43:21;;;;;;;;;46.67;39.33;;;;;15.52;77.51;101330.44;5079204;28;45378;-77
2023/04/26 07:45:47;;;;;;;;;21.33;21.00;;;;;15.62;77.29;101321.22;5080536;28;45284;-77
2023/04/26 07:48:12;;;;;;;;;22.00;20.33;;;;;15.72;76.99;101329.78;5078971;28;45523;-77
2023/04/26 07:50:37;;;;;;;;;22.67;22.00;;;;;15.74;77.25;101325.03;5078687;28;47233;-77
2023/04/26 07:53:03;;;;;;;;;26.67;22.00;;;;;15.90;76.95;101331.16;5079106;28;45302;-77
2023/04/26 07:55:28;;;;;;;;;19.67;18.33;;;;;15.97;76.20;101321.31;5080559;27;45264;-77
2023/04/26 07:57:53;;;;;;;;;46.33;36.67;;;;;16.09;76.29;101323.44;5078546;28;52033;-77
2023/04/26 08:00:21;;;;;;;;;26.67;24.67;;;;;16.20;76.55;101330.97;5078549;28;48101;-77
2023/04/26 08:02:46;;;;;;;;;19.00;19.00;;;;;16.34;76.19;101318.44;5080110;27;45417;-77
2023/04/26 08:05:12;;;;;;;;;33.33;30.33;;;;;16.47;75.56;101314.16;5078565;28;45317;-77
2023/04/26 08:07:38;;;;;;;;;36.33;33.00;;;;;16.53;75.84;101308.00;5078730;28;47168;-77
2023/04/26 08:10:03;;;;;;;;;32.67;30.67;;;;;16.72;75.02;101322.53;5079710;27;46032;-77
2023/04/26 08:12:29;;;;;;;;;21.00;20.67;;;;;16.81;74.99;101308.91;5079997;27;45288;-77
2023/04/26 08:14:54;;;;;;;;;16.00;15.00;;;;;16.87;73.10;101305.41;5078455;28;45421;-77
2023/04/26 08:17:19;;;;;;;;;14.00;13.33;;;;;16.91;72.91;101310.19;5079567;27;45311;-77
2023/04/26 08:19:45;;;;;;;;;17.00;15.00;;;;;16.97;73.50;101307.72;5082309;27;45819;-77
2023/04/26 08:22:10;;;;;;;;;16.00;14.00;;;;;17.06;71.61;101303.00;5081738;28;45322;-77
2023/04/26 08:24:35;;;;;;;;;17.00;16.33;;;;;17.16;71.99;101314.19;5083010;27;45284;-77
2023/04/26 08:27:01;;;;;;;;;17.33;14.33;;;;;17.23;72.85;101312.34;5083024;27;45330;-77
2023/04/26 08:29:26;;;;;;;;;15.33;13.33;;;;;17.27;69.82;101307.41;5073441;27;45393;-76
2023/04/26 08:31:52;;;;;;;;;16.00;13.33;;;;;17.28;69.53;101311.72;5062507;28;45572;-77
2023/04/26 08:34:18;;;;;;;;;11.33;11.00;;;;;17.22;69.47;101308.00;5061196;28;45346;-77
2023/04/26 08:36:44;;;;;;;;;13.00;13.00;;;;;17.37;69.80;101309.66;5062017;28;45219;-77
2023/04/26 08:39:11;;;;;;;;;14.33;14.33;;;;;17.43;70.28;101298.09;5062111;28;46010;-78
2023/04/26 08:41:42;;;;;;;;;11.33;11.00;;;;;17.60;69.58;101309.25;5061012;28;45308;-77
2023/04/26 08:44:08;;;;;;;;;13.67;13.33;;;;;17.61;68.17;101292.09;5060807;28;45362;-77
2023/04/26 08:46:43;;;;;;;;;15.33;12.00;;;;;17.72;69.45;101305.94;5062081;28;45404;-77
2023/04/26 08:49:17;;;;;;;;;14.00;12.67;;;;;17.70;69.20;101303.47;5062125;28;45230;-77
2023/04/26 08:51:44;;;;;;;;;12.33;12.00;;;;;17.75;69.71;101300.97;5062115;28;45308;-77
2023/04/26 08:54:11;;;;;;;;;11.33;11.00;;;;;17.84;69.14;101298.06;5062069;28;45263;-77
2023/04/26 08:56:38;;;;;;;;;17.67;17.67;;;;;17.91;68.82;101309.63;5060586;28;47110;-77
2023/04/26 08:59:04;;;;;;;;;28.33;27.67;;;;;17.89;68.04;101290.19;5060723;28;47328;-77
2023/04/26 09:01:31;;;;;;;;;19.67;18.00;;;;;18.09;68.37;101305.44;5061996;28;45391;-77
2023/04/26 09:03:56;;;;;;;;;11.67;11.67;;;;;18.15;67.37;101304.66;5062246;28;45313;-77
2023/04/26 09:06:23;;;;;;;;;11.33;9.67;;;;;18.27;64.08;101304.81;5060145;28;47069;-77
2023/04/26 09:08:53;;;;;;;;;8.33;8.33;;;;;18.29;64.33;101306.25;5061724;28;46399;-77
2023/04/26 09:11:18;;;;;;;;;8.33;8.00;;;;;18.37;64.30;101297.13;5061933;28;45462;-77
2023/04/26 09:13:43;;;;;;;;;10.00;10.00;;;;;18.46;63.98;101288.81;5061924;28;45582;-77
2023/04/26 09:16:09;;;;;;;;;9.00;9.00;;;;;18.66;62.62;101288.72;5061858;28;45382;-77
2023/04/26 09:18:34;;;;;;;;;10.00;10.00;;;;;18.77;62.14;101290.69;5060319;28;48059;-78
2023/04/26 09:21:05;;;;;;;;;11.00;10.00;;;;;18.84;61.38;101279.06;5061684;28;45384;-77
2023/04/26 09:23:31;;;;;;;;;9.00;8.33;;;;;18.93;60.62;101289.38;5060404;28;45304;-77
2023/04/26 09:26:14;;;;;;;;;9.00;7.67;;;;;18.95;60.58;101286.47;5061652;28;45342;-77
2023/04/26 09:28:41;;;;;;;;;6.00;6.00;;;;;19.07;59.36;101291.16;5064727;28;45315;-77
2023/04/26 09:31:06;;;;;;;;;8.67;8.67;;;;;19.11;59.13;101292.41;5080181;28;45315;-77
2023/04/26 09:33:31;;;;;;;;;10.33;9.33;;;;;19.26;58.87;101292.06;5080581;28;45302;-77
2023/04/26 09:36:10;;;;;;;;;6.67;6.00;;;;;19.26;57.41;101290.22;5081282;27;48229;-77
2023/04/26 09:38:41;;;;;;;;;7.00;7.00;;;;;19.21;58.23;101279.25;5080148;28;47347;-76
2023/04/26 09:41:06;;;;;;;;;7.00;6.33;;;;;19.23;56.74;101282.56;5081678;27;45370;-78
2023/04/26 09:43:36;;;;;;;;;5.00;5.00;;;;;19.24;55.67;101275.31;5081921;27;45290;-77
2023/04/26 09:46:02;;;;;;;;;7.00;7.00;;;;;19.28;56.37;101280.03;5081607;27;46410;-77
2023/04/26 09:48:33;;;;;;;;;6.67;6.00;;;;;19.35;54.94;101284.53;5081502;27;46126;-77
2023/04/26 09:51:01;;;;;;;;;5.67;5.67;;;;;19.52;54.93;101291.03;5079987;28;45348;-77
2023/04/26 09:53:38;;;;;;;;;9.33;8.67;;;;;19.60;55.58;101287.22;5080998;27;45352;-77
2023/04/26 09:56:13;;;;;;;;;7.00;7.00;;;;;19.77;52.82;101289.34;5081396;28;45311;-77
2023/04/26 09:59:04;;;;;;;;;8.67;8.67;;;;;19.90;54.48;101286.53;5081431;27;46232;-76
2023/04/26 10:01:29;;;;;;;;;7.00;7.00;;;;;20.04;53.26;101283.72;5079827;28;45382;-78
2023/04/26 10:03:56;;;;;;;;;11.00;10.00;;;;;20.17;51.06;101282.72;5080058;28;45354;-78
2023/04/26 10:06:22;;;;;;;;;7.00;6.00;;;;;20.31;54.66;101286.09;5081092;27;45549;-77
2023/04/26 10:08:47;;;;;;;;;8.00;8.00;;;;;20.43;53.21;101268.09;5080703;28;45398;-78
2023/04/26 10:11:12;;;;;;;;;5.00;5.00;;;;;20.51;50.36;101264.25;5081156;27;45317;-77
2023/04/26 10:13:40;;;;;;;;;8.67;6.67;;;;;20.56;50.99;101258.16;5080108;28;45274;-77
2023/04/26 10:16:07;;;;;;;;;9.67;7.00;;;;;20.62;49.53;101264.53;5081088;27;45424;-77
2023/04/26 10:18:32;;;;;;;;;7.00;7.00;;;;;20.69;50.09;101257.97;5079518;28;47400;-77
2023/04/26 10:21:05;;;;;;;;;7.00;7.00;;;;;20.76;51.07;101254.34;5080942;27;45339;-76
2023/04/26 10:23:32;;;;;;;;;9.33;9.33;;;;;20.98;51.52;101272.78;5079613;28;45357;-77
2023/04/26 10:25:57;;;;;;;;;10.33;10.00;;;;;21.11;50.31;101260.91;5079864;28;46185;-77
2023/04/26 10:28:48;;;;;;;;;8.00;8.00;;;;;21.21;50.68;101263.03;5078502;28;47324;-77
2023/04/26 10:31:13;;;;;;;;;7.67;6.67;;;;;21.31;49.14;101245.19;5060407;28;45297;-78
2023/04/26 10:33:38;;;;;;;;;22.00;19.00;;;;;21.42;49.53;101248.97;5059391;28;45319;-77
2023/04/26 10:36:13;;;;;;;;;20.00;18.00;;;;;21.69;49.62;101262.00;5058644;28;46068;-77
2023/04/26 10:39:28;;;;;;;;;12.33;10.00;;;;;21.98;50.08;101257.75;5060093;28;45311;-77
2023/04/26 10:42:23;;;;;;;;;11.00;9.67;;;;;22.16;48.50;101251.34;5059324;27;45279;-77
2023/04/26 10:44:49;;;;;;;;;9.33;8.00;;;;;22.24;47.49;101240.13;5060766;28;45273;-77
2023/04/26 10:47:33;;;;;;;;;11.33;11.33;;;;;22.44;48.39;101244.28;5060332;28;45185;-77
2023/04/26 10:50:06;;;;;;;;;45.33;37.33;;;;;22.65;49.49;101244.69;5060239;28;45338;-77
2023/04/26 10:52:33;;;;;;;;;64.75;50.75;;;;;22.91;48.90;101240.56;5059841;28;45276;-77
2023/04/26 10:54:59;;;;;;;;;8.67;8.67;;;;;23.06;48.40;101247.28;5060273;28;45358;-77
2023/04/26 10:57:46;;;;;;;;;7.00;7.00;;;;;22.98;42.01;101240.38;5059124;28;47094;-77
2023/04/26 11:00:19;;;;;;;;;25.67;22.67;;;;;22.98;42.64;101237.66;5060184;28;46378;-77
2023/04/26 11:02:51;;;;;;;;;18.33;15.00;;;;;22.96;45.60;101234.41;5060021;28;45403;-77
2023/04/26 11:05:41;;;;;;;;;5.67;5.67;;;;;23.03;45.63;101237.75;5060149;28;45276;-77
2023/04/26 11:08:27;;;;;;;;;22.00;21.00;;;;;23.00;43.81;101232.84;5059748;28;45268;-77
2023/04/26 11:11:12;;;;;;;;;10.33;7.00;;;;;22.91;44.43;101231.59;5059973;28;46149;-77